Time;durP1;ratioP1;P1;durP2;ratioP2;P2;SDS_P1;SDS_P2;PMS_P1;PMS_P2;Temp;Humidity;BMP_temperature;BMP_pressure;BME280_temperature;BME280_humidity;BME280_pressure;Samples;Min_cycle;Max_cycle;Signal;HPM_P1;HPM_P2
2021/05/22 00:01:46;;;;;;;9.52;2.58;;;9.50;99.90;;;;;;5073343;28;20195;-67
2021/05/22 00:04:12;;;;;;;4.63;1.90;;;9.50;99.90;;;;;;5073182;28;20564;-67
2021/05/22 00:06:38;;;;;;;10.32;2.45;;;9.60;99.90;;;;;;5071872;28;20673;-67
2021/05/22 00:09:06;;;;;;;3.35;2.25;;;9.60;99.90;;;;;;5073748;28;20640;-67
2021/05/22 00:11:35;;;;;;;8.73;1.83;;;9.60;99.90;;;;;;5073364;28;20659;-67
2021/05/22 00:14:05;;;;;;;5.68;2.33;;;9.60;99.90;;;;;;5073164;28;20216;-67
2021/05/22 00:16:32;;;;;;;2.97;1.60;;;9.60;99.90;;;;;;5073622;28;20211;-67
2021/05/22 00:18:58;;;;;;;3.42;1.80;;;9.70;99.90;;;;;;5073454;28;20281;-67
2021/05/22 00:21:25;;;;;;;6.60;1.83;;;9.70;99.90;;;;;;5073496;28;20200;-67
2021/05/22 00:23:51;;;;;;;7.10;1.90;;;9.70;99.90;;;;;;5073400;28;20200;-67
2021/05/22 00:26:18;;;;;;;3.95;1.60;;;9.70;99.90;;;;;;5073096;28;20291;-67
2021/05/22 00:28:44;;;;;;;2.85;1.70;;;9.60;99.90;;;;;;5073296;28;20508;-67
2021/05/22 00:31:10;;;;;;;4.20;1.40;;;9.60;99.90;;;;;;5073281;28;20203;-67
2021/05/22 00:33:37;;;;;;;3.60;2.25;;;9.60;99.90;;;;;;5073162;28;20200;-67
2021/05/22 00:36:04;;;;;;;6.45;2.00;;;9.50;99.90;;;;;;5073143;28;20247;-67
2021/05/22 00:38:30;;;;;;;17.15;2.38;;;9.40;99.90;;;;;;5072243;28;20558;-67
2021/05/22 00:40:56;;;;;;;4.65;2.03;;;9.30;99.90;;;;;;5073072;28;20220;-67
2021/05/22 00:43:23;;;;;;;5.82;1.42;;;9.30;99.90;;;;;;5073299;28;20196;-67
2021/05/22 00:45:54;;;;;;;5.25;1.77;;;9.10;99.90;;;;;;5071980;28;20196;-67
2021/05/22 00:48:21;;;;;;;2.08;1.50;;;9.10;99.90;;;;;;5073569;28;20534;-67
2021/05/22 00:50:50;;;;;;;2.10;1.30;;;9.10;99.90;;;;;;5072761;28;20188;-67
2021/05/22 00:53:17;;;;;;;1.40;1.10;;;9.10;99.90;;;;;;5071398;28;20215;-67
2021/05/22 00:55:45;;;;;;;2.55;1.27;;;9.10;99.90;;;;;;5073339;28;20194;-67
2021/05/22 00:58:11;;;;;;;1.63;1.23;;;9.10;99.90;;;;;;5073471;28;20664;-67
2021/05/22 01:00:47;;;;;;;4.13;2.20;;;9.10;99.90;;;;;;5077010;28;20230;-66
2021/05/22 01:03:29;;;;;;;1.17;1.08;;;9.10;99.90;;;;;;5077028;28;20211;-65
2021/05/22 01:06:18;;;;;;;1.50;1.40;;;9.10;99.90;;;;;;5077039;28;20204;-65
2021/05/22 01:08:53;;;;;;;4.30;1.65;;;9.20;99.90;;;;;;5077054;28;20214;-65
2021/05/22 01:11:32;;;;;;;5.65;1.60;;;9.20;99.90;;;;;;5076556;28;20176;-65
2021/05/22 01:14:17;;;;;;;1.40;1.30;;;9.20;99.90;;;;;;5075287;28;20191;-65
2021/05/22 01:16:45;;;;;;;2.10;1.50;;;9.10;99.90;;;;;;5076962;28;20199;-65
2021/05/22 01:19:23;;;;;;;1.73;1.63;;;9.20;99.90;;;;;;5076803;28;20226;-65
2021/05/22 01:21:50;;;;;;;4.05;1.70;;;9.30;99.90;;;;;;5076415;28;20198;-65
2021/05/22 01:24:20;;;;;;;3.28;1.45;;;9.10;99.90;;;;;;5075337;28;20306;-65
2021/05/22 01:26:46;;;;;;;2.90;1.65;;;9.10;99.90;;;;;;5076941;28;20283;-65
2021/05/22 01:29:13;;;;;;;3.38;1.60;;;9.10;99.90;;;;;;5076848;28;20229;-65
2021/05/22 01:31:40;;;;;;;3.17;1.90;;;9.10;99.90;;;;;;5076626;28;20210;-65
2021/05/22 01:34:09;;;;;;;6.38;1.75;;;9.10;99.90;;;;;;5058401;28;20210;-66
2021/05/22 01:36:36;;;;;;;1.85;1.60;;;9.10;99.90;;;;;;5076249;28;20649;-65
2021/05/22 01:39:03;;;;;;;2.10;1.30;;;9.00;99.90;;;;;;5076071;28;20223;-65
2021/05/22 01:41:29;;;;;;;2.65;2.05;;;9.00;99.90;;;;;;5074379;28;20306;-65
2021/05/22 01:43:59;;;;;;;6.88;2.00;;;8.90;99.90;;;;;;5076058;28;20208;-65
2021/05/22 01:46:28;;;;;;;3.25;1.90;;;8.90;99.90;;;;;;5075814;28;20203;-65
2021/05/22 01:48:56;;;;;;;4.47;1.67;;;8.90;99.90;;;;;;5075729;28;20237;-65
2021/05/22 01:51:25;;;;;;;3.33;1.48;;;8.80;99.90;;;;;;5075897;28;20644;-65
2021/05/22 01:53:52;;;;;;;2.63;1.50;;;8.80;99.90;;;;;;5075267;28;20646;-65
2021/05/22 01:56:19;;;;;;;5.97;2.28;;;8.70;99.90;;;;;;5074252;28;20184;-65
2021/05/22 01:58:46;;;;;;;8.23;1.70;;;8.70;99.90;;;;;;5075599;28;20283;-65
2021/05/22 02:01:13;;;;;;;5.43;1.80;;;8.70;99.90;;;;;;5074223;28;20196;-65
2021/05/22 02:03:47;;;;;;;2.35;1.30;;;8.70;99.90;;;;;;5074447;28;20192;-65
2021/05/22 02:06:21;;;;;;;3.78;1.67;;;8.60;99.90;;;;;;5075621;28;20202;-65
2021/05/22 02:08:49;;;;;;;7.30;1.77;;;8.60;99.90;;;;;;5074360;28;20179;-65
2021/05/22 02:11:15;;;;;;;3.08;1.60;;;8.60;99.90;;;;;;5074161;28;20585;-65
2021/05/22 02:13:44;;;;;;;3.25;1.70;;;8.50;99.90;;;;;;5074871;28;20663;-65
2021/05/22 02:16:12;;;;;;;6.28;2.05;;;8.50;99.90;;;;;;5074706;28;20214;-65
2021/05/22 02:18:41;;;;;;;6.07;2.05;;;8.50;99.90;;;;;;5073479;28;20214;-65
2021/05/22 02:21:09;;;;;;;8.02;2.90;;;8.40;99.90;;;;;;5074844;28;20188;-65
2021/05/22 02:23:43;;;;;;;6.15;2.50;;;8.40;99.90;;;;;;5074829;28;20192;-65
2021/05/22 02:26:10;;;;;;;4.25;2.20;;;8.40;99.90;;;;;;5074668;28;20187;-65
2021/05/22 02:28:40;;;;;;;5.93;2.30;;;8.40;99.90;;;;;;5074897;28;20200;-65
2021/05/22 02:31:07;;;;;;;3.65;2.85;;;8.40;99.90;;;;;;5074935;28;20224;-65
2021/05/22 02:33:35;;;;;;;3.85;2.30;;;8.40;99.90;;;;;;5075056;28;20699;-65
2021/05/22 02:36:03;;;;;;;4.10;2.30;;;8.40;99.90;;;;;;5073714;28;20199;-65
2021/05/22 02:38:34;;;;;;;6.78;2.20;;;8.40;99.90;;;;;;5074721;28;20192;-65
2021/05/22 02:41:05;;;;;;;8.73;2.88;;;8.30;99.90;;;;;;5074584;28;20212;-65
2021/05/22 02:43:33;;;;;;;2.58;1.85;;;8.30;99.90;;;;;;5074800;28;20263;-65
2021/05/22 02:46:01;;;;;;;2.75;2.05;;;8.30;99.90;;;;;;5075048;28;20204;-65
2021/05/22 02:48:30;;;;;;;7.30;2.08;;;8.30;99.90;;;;;;5074604;28;20184;-65
2021/05/22 02:50:59;;;;;;;6.38;1.80;;;8.30;99.90;;;;;;5074443;28;20580;-65
2021/05/22 02:53:27;;;;;;;3.70;1.92;;;8.20;99.90;;;;;;5074478;28;20194;-65
2021/05/22 02:55:54;;;;;;;2.50;1.85;;;8.20;99.90;;;;;;5074520;28;20190;-64
2021/05/22 02:58:21;;;;;;;4.75;1.92;;;8.20;99.90;;;;;;5074624;28;20195;-64
2021/05/22 03:00:48;;;;;;;4.63;2.15;;;8.20;99.90;;;;;;5074091;28;20222;-64
2021/05/22 03:03:18;;;;;;;2.92;2.03;;;8.20;99.90;;;;;;5073737;28;20196;-64
2021/05/22 03:05:45;;;;;;;5.13;2.28;;;8.10;99.90;;;;;;5073770;28;20198;-64
2021/05/22 03:08:12;;;;;;;2.03;1.80;;;8.10;99.90;;;;;;5072363;28;20627;-64
2021/05/22 03:10:38;;;;;;;2.08;1.95;;;8.10;99.90;;;;;;5073818;28;20216;-64
2021/05/22 03:13:05;;;;;;;4.50;2.40;;;8.10;99.90;;;;;;5074110;28;20203;-64
2021/05/22 03:15:32;;;;;;;3.33;2.42;;;8.10;99.90;;;;;;5073541;28;20212;-64
2021/05/22 03:17:58;;;;;;;4.90;2.33;;;8.20;99.90;;;;;;5073896;28;20724;-64
2021/05/22 03:20:25;;;;;;;5.88;2.20;;;8.20;99.90;;;;;;5073890;28;20192;-64
2021/05/22 03:22:51;;;;;;;4.00;2.10;;;8.20;99.90;;;;;;5073534;28;20187;-64
2021/05/22 03:25:18;;;;;;;5.47;2.08;;;8.20;99.90;;;;;;5072358;28;20231;-64
2021/05/22 03:27:44;;;;;;;3.60;2.50;;;8.20;99.90;;;;;;5072525;28;20564;-64
2021/05/22 03:30:11;;;;;;;2.05;1.85;;;8.20;99.90;;;;;;5073775;28;20232;-64
2021/05/22 03:32:37;;;;;;;6.63;2.15;;;8.20;99.90;;;;;;5073890;28;20203;-64
2021/05/22 03:35:05;;;;;;;8.38;2.70;;;8.20;99.90;;;;;;5073668;28;20192;-64
2021/05/22 03:37:31;;;;;;;1.83;1.73;;;8.10;99.90;;;;;;5073576;28;20210;-64
2021/05/22 03:39:58;;;;;;;6.72;2.20;;;8.10;99.90;;;;;;5073609;28;20675;-64
2021/05/22 03:42:24;;;;;;;6.05;2.40;;;8.10;99.90;;;;;;5073667;28;20214;-64
2021/05/22 03:44:50;;;;;;;3.90;2.05;;;8.10;99.90;;;;;;5072404;28;20200;-64
2021/05/22 03:47:17;;;;;;;4.53;2.40;;;8.20;99.90;;;;;;5073624;28;20198;-64
2021/05/22 03:49:43;;;;;;;4.53;2.30;;;8.20;99.90;;;;;;5073414;28;20216;-64
2021/05/22 03:52:09;;;;;;;4.22;2.20;;;8.20;99.90;;;;;;5073501;28;20222;-64
2021/05/22 03:54:36;;;;;;;7.15;2.35;;;8.20;99.90;;;;;;5071971;28;20224;-64
2021/05/22 03:57:02;;;;;;;3.42;2.35;;;8.20;99.90;;;;;;5073309;28;20270;-64
2021/05/22 03:59:28;;;;;;;5.07;2.72;;;8.20;99.90;;;;;;5073491;28;20283;-64
2021/05/22 04:01:55;;;;;;;5.63;2.17;;;8.20;99.90;;;;;;5073367;28;20582;-64
2021/05/22 04:04:21;;;;;;;5.25;2.25;;;8.20;99.90;;;;;;5073150;28;20215;-64
2021/05/22 04:06:47;;;;;;;6.93;3.00;;;8.30;99.90;;;;;;5073337;28;20195;-64
2021/05/22 04:09:14;;;;;;;3.30;1.90;;;8.30;99.90;;;;;;5073090;28;20192;-64
2021/05/22 04:11:40;;;;;;;6.38;2.42;;;8.30;99.90;;;;;;5071869;28;20681;-64
2021/05/22 04:14:06;;;;;;;5.63;2.30;;;8.40;99.90;;;;;;5073438;28;20648;-64
2021/05/22 04:16:33;;;;;;;5.57;2.50;;;8.40;99.90;;;;;;5073096;28;20192;-64
2021/05/22 04:19:00;;;;;;;4.78;2.15;;;8.40;99.90;;;;;;5071960;28;20208;-64
2021/05/22 04:21:26;;;;;;;4.03;2.25;;;8.50;99.90;;;;;;5073083;28;20711;-64
2021/05/22 04:23:52;;;;;;;6.22;2.72;;;8.50;99.90;;;;;;5073124;28;20214;-64
2021/05/22 04:26:19;;;;;;;3.72;2.63;;;8.50;99.90;;;;;;5073113;28;20195;-64
2021/05/22 04:28:45;;;;;;;4.60;2.70;;;8.50;99.90;;;;;;5072893;28;20198;-64
2021/05/22 04:31:12;;;;;;;9.73;2.83;;;8.50;99.90;;;;;;5072852;28;20571;-64
2021/05/22 04:33:38;;;;;;;4.93;2.30;;;8.60;99.90;;;;;;5074075;28;20199;-64
2021/05/22 04:36:05;;;;;;;3.97;2.58;;;8.60;99.90;;;;;;5075416;28;20670;-64
2021/05/22 04:38:32;;;;;;;7.95;2.47;;;8.70;99.90;;;;;;5076978;28;20278;-64
2021/05/22 04:40:58;;;;;;;7.18;2.47;;;8.70;99.90;;;;;;5076854;28;20234;-64
2021/05/22 04:43:24;;;;;;;5.28;2.00;;;8.70;99.90;;;;;;5076594;28;20552;-64
2021/05/22 04:45:51;;;;;;;5.45;2.22;;;8.80;99.90;;;;;;5076847;28;20208;-64
2021/05/22 04:48:17;;;;;;;3.75;1.92;;;8.80;99.90;;;;;;5076535;28;20603;-64
2021/05/22 04:50:44;;;;;;;4.72;3.03;;;8.80;99.90;;;;;;5076408;28;20224;-64
2021/05/22 04:53:10;;;;;;;3.60;2.30;;;8.90;99.90;;;;;;5076715;28;20631;-64
2021/05/22 04:55:37;;;;;;;2.30;1.90;;;8.90;99.90;;;;;;5076816;28;20234;-64
2021/05/22 04:58:03;;;;;;;5.22;1.73;;;9.00;99.90;;;;;;5076078;28;20204;-64
2021/05/22 05:00:30;;;;;;;2.95;1.90;;;9.00;99.90;;;;;;5076686;28;20699;-64
2021/05/22 05:02:56;;;;;;;3.97;2.22;;;9.10;99.90;;;;;;5076396;28;20192;-64
2021/05/22 05:05:24;;;;;;;2.65;2.17;;;9.20;99.90;;;;;;5076788;28;20215;-64
2021/05/22 05:07:50;;;;;;;3.88;1.92;;;9.30;99.90;;;;;;5076263;28;20558;-64
2021/05/22 05:10:16;;;;;;;9.85;2.50;;;9.30;99.90;;;;;;5075822;28;20286;-64
2021/05/22 05:12:43;;;;;;;7.00;2.10;;;9.30;99.90;;;;;;5076226;28;20204;-64
2021/05/22 05:15:10;;;;;;;2.38;1.60;;;9.40;99.90;;;;;;5067341;28;20209;-64
2021/05/22 05:17:36;;;;;;;7.90;1.65;;;9.40;99.90;;;;;;5069072;28;20207;-64
2021/05/22 05:20:03;;;;;;;1.60;1.50;;;9.50;99.90;;;;;;5075767;28;20204;-64
2021/05/22 05:22:30;;;;;;;3.50;2.00;;;9.60;99.90;;;;;;5075894;28;20635;-64
2021/05/22 05:24:56;;;;;;;8.52;1.80;;;9.70;99.90;;;;;;5075946;28;20200;-64
2021/05/22 05:27:23;;;;;;;2.92;1.83;;;9.80;99.90;;;;;;5063012;28;20200;-64
2021/05/22 05:29:49;;;;;;;3.00;1.65;;;9.80;99.90;;;;;;5074331;28;20666;-64
2021/05/22 05:32:15;;;;;;;3.72;1.50;;;9.90;99.90;;;;;;5075741;28;20387;-64
2021/05/22 05:34:42;;;;;;;7.15;1.85;;;10.00;99.90;;;;;;5075583;28;20191;-64
2021/05/22 05:37:09;;;;;;;2.97;1.20;;;10.10;99.90;;;;;;5075505;28;20218;-64
2021/05/22 05:39:36;;;;;;;3.90;1.52;;;10.10;99.90;;;;;;5075430;28;20204;-65
2021/05/22 05:42:03;;;;;;;6.60;1.80;;;10.20;99.90;;;;;;5075551;28;20199;-65
2021/05/22 05:44:29;;;;;;;3.85;1.50;;;10.20;99.90;;;;;;5075101;28;20644;-65
2021/05/22 05:46:56;;;;;;;6.05;1.70;;;10.30;99.90;;;;;;5075764;28;20282;-65
2021/05/22 05:49:28;;;;;;;7.38;2.00;;;10.40;99.90;;;;;;5075598;28;20199;-64
2021/05/22 05:51:59;;;;;;;6.63;1.83;;;10.50;99.90;;;;;;5075483;28;20207;-65
2021/05/22 05:54:26;;;;;;;6.00;1.60;;;10.50;99.90;;;;;;5075248;28;20236;-64
2021/05/22 05:56:52;;;;;;;4.72;1.75;;;10.60;99.90;;;;;;5075115;28;20639;-64
2021/05/22 05:59:19;;;;;;;10.50;2.00;;;10.70;99.90;;;;;;5074407;28;20596;-64
2021/05/22 06:01:45;;;;;;;4.38;1.67;;;10.70;99.90;;;;;;5060349;28;20204;-65
2021/05/22 06:04:11;;;;;;;2.90;1.50;;;10.80;99.90;;;;;;5062597;28;20232;-65
2021/05/22 06:06:38;;;;;;;5.32;1.60;;;10.80;99.90;;;;;;5073650;28;20207;-64
2021/05/22 06:09:05;;;;;;;3.72;1.88;;;11.00;99.90;;;;;;5075085;28;20275;-64
2021/05/22 06:11:34;;;;;;;5.05;1.70;;;11.00;99.90;;;;;;5075209;28;20247;-65
2021/05/22 06:14:01;;;;;;;5.68;2.85;;;11.10;99.90;;;;;;5075705;28;20262;-65
2021/05/22 06:16:35;;;;;;;5.40;1.88;;;11.10;99.90;;;;;;5074967;28;20200;-64
2021/05/22 06:19:03;;;;;;;7.60;1.88;;;11.10;99.90;;;;;;5075114;28;20652;-65
2021/05/22 06:21:29;;;;;;;9.35;1.90;;;11.20;99.90;;;;;;5075038;28;20192;-64
2021/05/22 06:23:56;;;;;;;5.82;1.80;;;11.20;99.90;;;;;;5075571;28;20658;-65
2021/05/22 06:26:22;;;;;;;4.75;1.10;;;11.40;99.90;;;;;;5070681;28;20575;-65
2021/05/22 06:28:49;;;;;;;5.00;1.63;;;11.40;99.90;;;;;;5063985;28;20224;-65
2021/05/22 06:31:15;;;;;;;6.47;2.45;;;11.40;99.90;;;;;;5074640;28;20234;-65
2021/05/22 06:33:42;;;;;;;5.63;2.08;;;11.40;99.90;;;;;;5074356;28;20212;-65
2021/05/22 06:36:09;;;;;;;3.47;1.42;;;11.50;99.90;;;;;;5074489;28;20199;-65
2021/05/22 06:38:35;;;;;;;9.65;2.22;;;11.50;99.90;;;;;;5073744;28;20227;-65
2021/05/22 06:41:02;;;;;;;7.85;1.50;;;11.80;99.90;;;;;;5074902;28;20235;-65
2021/05/22 06:43:29;;;;;;;8.32;1.85;;;12.00;99.90;;;;;;5074613;28;20655;-65
2021/05/22 06:46:00;;;;;;;1.98;1.30;;;12.00;99.90;;;;;;5074871;28;20207;-65
2021/05/22 06:48:27;;;;;;;5.55;2.03;;;12.00;99.90;;;;;;5073285;28;20200;-65
2021/05/22 06:50:54;;;;;;;8.00;1.77;;;12.00;99.90;;;;;;5074477;28;20265;-65
2021/05/22 06:53:21;;;;;;;5.03;1.55;;;12.20;99.90;;;;;;5074443;28;20222;-65
2021/05/22 06:55:47;;;;;;;5.88;1.10;;;12.20;99.90;;;;;;5074276;28;20180;-65
2021/05/22 06:58:13;;;;;;;3.63;1.30;;;12.50;99.90;;;;;;5074417;28;20188;-65
2021/05/22 07:00:40;;;;;;;5.43;1.98;;;12.60;99.90;;;;;;5074372;28;20203;-65
2021/05/22 07:03:06;;;;;;;3.97;1.27;;;12.50;99.90;;;;;;5074364;28;20214;-65
2021/05/22 07:05:33;;;;;;;3.00;1.27;;;12.50;99.90;;;;;;5074274;28;20216;-65
2021/05/22 07:08:01;;;;;;;4.68;1.85;;;12.50;99.90;;;;;;5074088;28;20183;-65
2021/05/22 07:10:28;;;;;;;3.53;1.27;;;12.80;99.90;;;;;;5074067;28;20710;-65
2021/05/22 07:12:54;;;;;;;7.10;1.50;;;12.70;99.90;;;;;;5073664;28;20284;-65
2021/05/22 07:15:20;;;;;;;4.03;1.30;;;12.80;99.90;;;;;;5073750;28;20204;-65
2021/05/22 07:17:47;;;;;;;5.43;1.88;;;12.90;99.90;;;;;;5073446;28;20655;-65
2021/05/22 07:20:14;;;;;;;5.88;2.00;;;12.70;99.90;;;;;;5073593;28;20271;-65
2021/05/22 07:22:41;;;;;;;3.95;1.30;;;12.60;99.90;;;;;;5074065;28;20204;-65
2021/05/22 07:25:08;;;;;;;6.35;2.10;;;12.90;99.90;;;;;;5073479;28;20204;-65
2021/05/22 07:27:36;;;;;;;7.40;2.20;;;13.10;99.90;;;;;;5072858;28;20287;-65
2021/05/22 07:30:08;;;;;;;2.97;1.75;;;13.30;99.90;;;;;;5074065;28;20200;-63
2021/05/22 07:32:36;;;;;;;3.45;1.25;;;13.20;99.90;;;;;;5073844;28;20203;-64
2021/05/22 07:35:03;;;;;;;4.53;1.80;;;13.40;99.90;;;;;;5074353;28;20196;-66
2021/05/22 07:37:30;;;;;;;5.20;1.60;;;13.60;99.90;;;;;;5073966;28;20275;-64
2021/05/22 07:39:57;;;;;;;4.10;1.50;;;13.60;99.90;;;;;;5073533;28;20222;-66
2021/05/22 07:42:25;;;;;;;2.90;1.40;;;13.70;99.90;;;;;;5073968;28;20206;-65
2021/05/22 07:44:52;;;;;;;4.37;1.30;;;13.60;99.90;;;;;;5072244;28;20652;-66
2021/05/22 07:47:19;;;;;;;9.30;1.63;;;13.70;99.90;;;;;;5073572;28;20669;-65
2021/05/22 07:49:45;;;;;;;5.43;1.30;;;14.00;99.90;;;;;;5074139;28;20568;-65
2021/05/22 07:52:12;;;;;;;6.88;1.55;;;13.50;99.90;;;;;;5073469;28;20656;-65
2021/05/22 07:54:41;;;;;;;3.83;1.30;;;13.10;99.90;;;;;;5073133;28;20353;-66
2021/05/22 07:57:09;;;;;;;3.13;1.77;;;13.10;99.90;;;;;;5073581;28;20556;-65
2021/05/22 07:59:36;;;;;;;2.90;1.27;;;13.10;99.90;;;;;;5073007;28;20601;-64
2021/05/22 08:02:03;;;;;;;6.50;1.58;;;13.40;99.90;;;;;;5073227;28;20207;-64
2021/05/22 08:04:30;;;;;;;5.53;1.40;;;13.50;99.90;;;;;;5073189;28;20194;-64
2021/05/22 08:06:56;;;;;;;4.63;2.17;;;13.50;99.90;;;;;;5072501;28;20228;-64
2021/05/22 08:09:23;;;;;;;10.68;2.63;;;13.50;99.90;;;;;;5077392;28;20200;-64
2021/05/22 08:11:49;;;;;;;4.00;1.40;;;13.70;99.90;;;;;;5077590;28;20242;-65
2021/05/22 08:14:16;;;;;;;7.53;1.83;;;13.50;99.90;;;;;;5076134;28;20596;-65
2021/05/22 08:16:43;;;;;;;5.43;1.40;;;13.50;99.90;;;;;;5077279;28;20627;-65
2021/05/22 08:19:12;;;;;;;3.43;1.20;;;13.60;99.90;;;;;;5076214;28;20538;-65
2021/05/22 08:21:39;;;;;;;7.20;1.63;;;13.70;99.90;;;;;;5077358;28;20706;-65
2021/05/22 08:24:06;;;;;;;2.37;1.20;;;13.90;99.90;;;;;;5077511;28;20622;-65
2021/05/22 08:26:33;;;;;;;4.37;1.63;;;14.10;99.90;;;;;;5077061;28;20625;-65
2021/05/22 08:29:01;;;;;;;5.07;1.40;;;13.90;99.90;;;;;;5077248;28;20617;-65
2021/05/22 08:31:28;;;;;;;5.20;1.33;;;14.30;99.90;;;;;;5076981;28;20636;-65
2021/05/22 08:33:54;;;;;;;8.00;1.70;;;14.60;99.90;;;;;;5077163;28;21158;-65
2021/05/22 08:36:20;;;;;;;5.60;2.57;;;14.50;99.90;;;;;;5077159;28;20618;-65
2021/05/22 08:38:47;;;;;;;8.30;2.03;;;14.10;99.90;;;;;;5076685;28;20704;-64
2021/05/22 08:41:13;;;;;;;7.38;1.80;;;14.50;99.90;;;;;;5075440;28;20644;-64
2021/05/22 08:43:39;;;;;;;4.57;1.40;;;14.40;99.90;;;;;;5077183;28;20204;-65
2021/05/22 08:46:10;;;;;;;1.27;0.90;;;14.40;99.90;;;;;;5076871;28;20557;-64
2021/05/22 08:48:38;;;;;;;4.33;1.50;;;14.60;99.90;;;;;;5076553;28;20644;-63
2021/05/22 08:51:08;;;;;;;7.53;1.53;;;14.70;99.90;;;;;;5076627;28;20630;-64
2021/05/22 08:53:35;;;;;;;2.30;1.20;;;14.60;99.90;;;;;;5076683;28;20613;-64
2021/05/22 08:56:02;;;;;;;2.67;1.53;;;14.70;99.90;;;;;;5076575;28;20917;-64
2021/05/22 08:58:28;;;;;;;2.10;0.90;;;15.00;99.90;;;;;;5076605;28;20596;-64
2021/05/22 09:00:55;;;;;;;5.17;1.33;;;14.90;99.90;;;;;;5076501;28;20602;-66
2021/05/22 09:03:21;;;;;;;1.77;1.50;;;15.00;99.90;;;;;;5076732;28;20565;-65
2021/05/22 09:05:47;;;;;;;1.63;1.13;;;15.00;99.90;;;;;;5076334;28;20598;-65
2021/05/22 09:08:15;;;;;;;5.90;2.30;;;15.10;99.90;;;;;;5076150;28;20648;-65
2021/05/22 09:10:50;;;;;;;4.47;1.37;;;15.50;99.90;;;;;;5076258;28;20634;-64
2021/05/22 09:13:26;;;;;;;3.27;1.40;;;15.30;99.90;;;;;;5076331;28;20559;-64
2021/05/22 09:16:06;;;;;;;4.50;1.40;;;15.30;99.90;;;;;;5076660;28;20637;-65
2021/05/22 09:18:40;;;;;;;3.47;1.00;;;15.60;99.90;;;;;;5076182;28;20672;-64
2021/05/22 09:21:09;;;;;;;10.03;1.67;;;15.40;99.90;;;;;;5075889;28;21168;-64
2021/05/22 09:23:43;;;;;;;2.03;1.07;;;15.20;99.90;;;;;;5076414;28;20857;-65
2021/05/22 09:26:12;;;;;;;2.37;1.23;;;;;;;;;;5076335;28;20622;-65
2021/05/22 09:28:46;;;;;;;1.67;1.00;;;15.40;99.90;;;;;;5075996;28;20593;-65
2021/05/22 09:31:16;;;;;;;3.33;1.63;;;;;;;;;;5076173;28;20668;-64
2021/05/22 09:33:43;;;;;;;3.90;1.17;;;15.00;99.90;;;;;;5075635;28;21129;-64
2021/05/22 09:36:12;;;;;;;5.20;1.50;;;15.20;99.90;;;;;;5075762;28;20598;-65
2021/05/22 09:38:57;;;;;;;3.17;1.37;;;14.90;99.90;;;;;;5075551;28;20621;-64
2021/05/22 09:41:23;;;;;;;2.60;1.07;;;15.10;99.90;;;;;;5075520;28;20616;-65
2021/05/22 09:44:29;;;;;;;7.10;1.00;;;15.30;99.90;;;;;;5075886;28;20622;-65
2021/05/22 09:46:55;;;;;;;1.23;1.00;;;15.30;99.90;;;;;;5073326;28;20633;-65
2021/05/22 09:49:28;;;;;;;4.20;1.20;;;14.90;99.90;;;;;;5073698;28;20591;-65
2021/05/22 09:51:58;;;;;;;9.13;1.70;;;15.10;99.90;;;;;;5073238;28;20733;-64
2021/05/22 09:54:40;;;;;;;3.57;1.20;;;15.60;99.90;;;;;;5075287;28;20683;-64
2021/05/22 09:57:09;;;;;;;2.80;1.30;;;16.00;99.90;;;;;;5075720;28;20721;-65
2021/05/22 09:59:36;;;;;;;4.10;1.00;;;15.60;99.90;;;;;;5075660;28;20704;-64
2021/05/22 10:02:03;;;;;;;4.93;1.03;;;15.60;99.90;;;;;;5075548;28;20614;-64
2021/05/22 10:04:29;;;;;;;1.00;0.80;;;15.60;99.90;;;;;;5075086;28;20618;-64
2021/05/22 10:06:59;;;;;;;5.13;0.97;;;15.80;99.90;;;;;;5075367;28;21129;-64
2021/05/22 10:09:27;;;;;;;2.43;1.07;;;15.90;99.90;;;;;;5073869;28;20640;-64
2021/05/22 10:12:09;;;;;;;2.93;1.07;;;16.10;99.90;;;;;;5075006;28;20642;-64
2021/05/22 10:14:39;;;;;;;3.23;1.20;;;16.10;99.90;;;;;;5074949;28;20559;-65
2021/05/22 10:17:06;;;;;;;3.30;1.50;;;16.10;99.90;;;;;;5074926;28;21115;-64
2021/05/22 10:19:34;;;;;;;3.57;1.77;;;15.70;99.90;;;;;;5075533;28;20610;-64
2021/05/22 10:22:02;;;;;;;6.60;1.80;;;15.50;99.90;;;;;;5073658;28;20602;-64
2021/05/22 10:24:29;;;;;;;2.87;1.47;;;15.30;99.90;;;;;;5074543;28;20691;-65
2021/05/22 10:26:57;;;;;;;2.60;1.10;;;15.20;99.90;;;;;;5075093;28;20604;-65
2021/05/22 10:29:24;;;;;;;5.87;1.27;;;15.60;99.90;;;;;;5074963;28;20573;-65
2021/05/22 10:31:53;;;;;;;3.70;1.10;;;15.50;99.90;;;;;;5073512;28;21005;-64
2021/05/22 10:34:25;;;;;;;2.50;1.43;;;15.50;99.90;;;;;;5074818;28;20964;-64
2021/05/22 10:36:52;;;;;;;2.53;1.03;;;15.50;99.90;;;;;;5074477;28;20633;-64
2021/05/22 10:39:39;;;;;;;2.63;1.00;;;15.30;99.90;;;;;;5074763;28;20626;-64
2021/05/22 10:42:29;;;;;;;3.37;1.00;;;15.80;99.90;;;;;;5074252;28;20990;-65
2021/05/22 10:44:57;;;;;;;5.63;1.50;;;15.90;99.90;;;;;;5074416;28;20622;-65
2021/05/22 10:47:28;;;;;;;1.60;0.83;;;16.20;99.90;;;;;;5074883;28;21103;-65
2021/05/22 10:49:55;;;;;;;3.80;1.30;;;16.50;99.90;;;;;;5074139;28;20630;-65
2021/05/22 10:52:32;;;;;;;3.80;1.40;;;16.80;99.90;;;;;;5152688;27;20291;-65
2021/05/22 10:55:11;;;;;;;4.30;1.83;;;16.50;99.90;;;;;;5132356;28;20668;-65
2021/05/22 10:57:46;;;;;;;4.50;1.40;;;16.90;99.90;;;;;;5131632;28;20623;-65
2021/05/22 11:00:19;;;;;;;4.10;1.10;;;17.10;99.90;;;;;;5131909;28;20939;-65
2021/05/22 11:03:13;;;;;;;1.83;1.20;;;16.80;99.90;;;;;;5131476;28;20718;-65
2021/05/22 11:05:41;;;;;;;2.17;1.40;;;16.90;99.90;;;;;;5119698;28;20644;-65
2021/05/22 11:08:07;;;;;;;4.23;1.37;;;16.60;99.90;;;;;;5131190;28;20619;-65
2021/05/22 11:10:37;;;;;;;3.63;1.33;;;16.10;99.90;;;;;;5130978;28;20652;-65
2021/05/22 11:13:31;;;;;;;6.43;1.50;;;16.30;99.90;;;;;;5131768;28;21100;-65
2021/05/22 11:15:59;;;;;;;2.40;0.90;;;16.20;99.90;;;;;;5131611;28;20627;-65
2021/05/22 11:18:27;;;;;;;2.00;1.30;;;16.30;99.90;;;;;;5131082;28;20631;-65
2021/05/22 11:21:18;;;;;;;3.37;1.20;;;16.30;99.90;;;;;;5131769;28;20586;-65
2021/05/22 11:24:05;;;;;;;4.93;1.20;;;16.20;99.90;;;;;;5131206;28;20942;-65
2021/05/22 11:26:59;;;;;;;4.63;1.03;;;16.60;99.90;;;;;;5131571;28;20935;-65
2021/05/22 11:29:53;;;;;;;2.23;1.00;;;16.90;99.90;;;;;;5127732;28;20643;-65
2021/05/22 11:32:42;;;;;;;4.20;1.37;;;16.70;99.90;;;;;;5131326;28;20659;-66
2021/05/22 11:35:26;;;;;;;1.20;1.00;;;16.90;99.90;;;;;;5131566;28;20600;-64
2021/05/22 11:38:22;;;;;;;2.37;1.30;;;16.60;99.90;;;;;;5130770;28;21141;-64
2021/05/22 11:40:53;;;;;;;4.67;1.30;;;16.60;99.90;;;;;;5109155;28;20652;-64
2021/05/22 11:43:20;;;;;;;3.03;1.20;;;16.40;99.90;;;;;;5092318;28;20698;-64
2021/05/22 11:46:14;;;;;;;2.70;1.23;;;17.20;99.90;;;;;;5110321;28;20621;-64
2021/05/22 11:48:48;;;;;;;2.27;1.37;;;17.70;99.90;;;;;;5110045;28;20625;-65
2021/05/22 11:51:25;;;;;;;3.03;1.20;;;17.90;99.90;;;;;;5109620;28;20685;-64
2021/05/22 11:54:13;;;;;;;2.33;1.40;;;18.40;99.90;;;;;;5110213;28;20611;-64
2021/05/22 11:56:41;;;;;;;3.30;1.10;;;18.10;99.90;;;;;;5109493;28;21058;-65
2021/05/22 11:59:12;;;;;;;3.60;1.20;;;19.20;99.90;;;;;;5109796;28;20640;-65
2021/05/22 12:01:39;;;;;;;4.60;0.90;;;19.60;99.90;;;;;;5109395;28;20607;-65
2021/05/22 12:04:06;;;;;;;3.87;1.10;;;;;;;;;;5095592;28;20732;-68
2021/05/22 12:06:41;;;;;;;2.67;0.90;;;18.80;99.90;;;;;;5096452;28;20619;-67
2021/05/22 12:09:19;;;;;;;2.43;1.13;;;19.40;99.90;;;;;;5096395;28;20635;-67
2021/05/22 12:12:04;;;;;;;2.50;1.00;;;18.30;99.90;;;;;;5096277;28;20637;-66
2021/05/22 12:14:38;;;;;;;1.30;1.00;;;18.10;99.90;;;;;;5096501;28;20604;-68
2021/05/22 12:17:05;;;;;;;5.47;1.23;;;17.40;99.90;;;;;;5096041;28;20664;-67
2021/05/22 12:19:36;;;;;;;1.07;0.83;;;17.30;99.90;;;;;;5096391;28;20650;-67
2021/05/22 12:22:04;;;;;;;3.00;1.47;;;17.10;99.90;;;;;;5096376;28;20667;-67
2021/05/22 12:24:31;;;;;;;4.23;0.80;;;17.50;99.90;;;;;;5096094;28;20603;-67
2021/05/22 12:26:58;;;;;;;2.03;0.70;;;18.50;99.90;;;;;;5095995;28;20632;-67
2021/05/22 12:29:26;;;;;;;2.20;1.00;;;18.80;99.90;;;;;;5095945;28;20600;-68
2021/05/22 12:31:59;;;;;;;2.60;0.80;;;18.90;99.90;;;;;;5096269;28;20664;-68
2021/05/22 12:34:36;;;;;;;1.77;0.90;;;18.60;99.90;;;;;;5097736;28;21065;-67
2021/05/22 12:37:08;;;;;;;3.83;1.10;;;18.00;99.90;;;;;;5098664;28;20659;-67
2021/05/22 12:39:43;;;;;;;5.70;1.07;;;17.40;99.90;;;;;;5095871;28;21092;-67
2021/05/22 12:42:17;;;;;;;7.30;1.00;;;17.30;99.90;;;;;;5077686;28;20624;-67
2021/05/22 12:44:54;;;;;;;2.60;1.00;;;16.80;99.90;;;;;;5095952;28;20601;-67
2021/05/22 12:47:23;;;;;;;3.20;1.10;;;17.00;99.90;;;;;;5095697;28;21102;-67
2021/05/22 12:49:58;;;;;;;1.30;1.00;;;18.00;99.90;;;;;;5095679;28;21174;-67
2021/05/22 12:52:28;;;;;;;1.00;0.80;;;18.90;99.90;;;;;;5095397;28;21282;-67
2021/05/22 12:54:55;;;;;;;2.60;1.03;;;19.10;99.90;;;;;;5095845;28;20621;-66
2021/05/22 12:57:33;;;;;;;1.33;0.80;;;19.10;99.90;;;;;;5095449;28;20947;-66
2021/05/22 12:59:59;;;;;;;6.90;1.00;;;19.60;99.90;;;;;;5095429;28;20912;-66
2021/05/22 13:02:30;;;;;;;1.87;0.93;;;19.10;99.90;;;;;;5095596;28;20612;-66
2021/05/22 13:04:58;;;;;;;6.00;1.10;;;19.70;99.90;;;;;;5095648;28;20923;-66